Time;durP1;ratioP1;P1;durP2;ratioP2;P2;SDS_P1;SDS_P2;PMS_P1;PMS_P2;Temp;Humidity;BMP_temperature;BMP_pressure;BME280_temperature;BME280_humidity;BME280_pressure;Samples;Min_cycle;Max_cycle;Signal;HPM_P1;HPM_P2
2023/07/04 00:00:13;;;;;;;12.45;2.88;;;;;;;;;;4880718;29;20107;-73
2023/07/04 00:02:40;;;;;;;13.88;2.60;;;;;;;;;;4896845;29;20058;-73
2023/07/04 00:05:06;;;;;;;10.13;2.28;;;;;;;;;;4897784;29;20140;-73
2023/07/04 00:07:32;;;;;;;7.70;2.40;;;;;;;;;;4897009;29;20083;-73
2023/07/04 00:09:59;;;;;;;8.63;2.28;;;;;;;;;;4879385;29;20050;-73
2023/07/04 00:12:26;;;;;;;13.90;3.00;;;;;;;;;;4881210;29;20104;-72
2023/07/04 00:14:52;;;;;;;12.05;2.80;;;;;;;;;;4877929;29;20142;-73
2023/07/04 00:17:18;;;;;;;11.90;2.30;;;;;;;;;;4880447;29;20048;-73
2023/07/04 00:19:47;;;;;;;9.25;2.70;;;;;;;;;;4879131;29;21939;-74
2023/07/04 00:22:13;;;;;;;25.10;3.70;;;;;;;;;;4883728;29;20063;-73
2023/07/04 00:24:40;;;;;;;12.43;2.47;;;;;;;;;;4885235;29;20047;-73
2023/07/04 00:27:07;;;;;;;14.50;2.88;;;;;;;;;;4878540;29;20052;-73
2023/07/04 00:29:33;;;;;;;6.35;2.33;;;;;;;;;;4876969;29;20055;-74
2023/07/04 00:32:02;;;;;;;11.02;2.47;;;;;;;;;;4893766;29;20078;-74
2023/07/04 00:34:28;;;;;;;10.05;2.83;;;;;;;;;;4878996;29;20047;-74
2023/07/04 00:36:54;;;;;;;11.35;2.58;;;;;;;;;;4899525;29;20086;-74
2023/07/04 00:39:20;;;;;;;11.77;3.42;;;;;;;;;;4897776;29;20044;-74
2023/07/04 00:41:47;;;;;;;13.65;3.35;;;;;;;;;;4870215;29;20049;-73
2023/07/04 00:44:20;;;;;;;10.23;2.80;;;;;;;;;;4885710;29;20048;-74
2023/07/04 00:46:56;;;;;;;9.38;3.08;;;;;;;;;;4878894;29;20075;-74
2023/07/04 00:49:29;;;;;;;12.60;3.00;;;;;;;;;;4881823;29;20535;-74
2023/07/04 00:51:58;;;;;;;16.77;2.97;;;;;;;;;;4879430;29;20186;-74
2023/07/04 00:54:25;;;;;;;12.30;2.83;;;;;;;;;;4881231;29;20043;-74
2023/07/04 00:56:55;;;;;;;11.48;2.55;;;;;;;;;;4882694;29;20231;-74
2023/07/04 00:59:22;;;;;;;14.75;3.15;;;;;;;;;;4881006;29;20951;-74
2023/07/04 01:01:48;;;;;;;14.68;3.10;;;;;;;;;;4871023;29;20051;-74
2023/07/04 01:04:15;;;;;;;10.65;2.65;;;;;;;;;;4883087;29;20543;-74
2023/07/04 01:06:50;;;;;;;11.63;2.95;;;;;;;;;;4884340;29;20036;-74
2023/07/04 01:09:17;;;;;;;10.95;2.45;;;;;;;;;;4874410;29;20075;-73
2023/07/04 01:11:44;;;;;;;8.40;2.95;;;;;;;;;;4884800;29;20063;-72
2023/07/04 01:14:17;;;;;;;14.05;2.95;;;;;;;;;;4883787;29;20071;-72
2023/07/04 01:16:43;;;;;;;9.70;2.75;;;;;;;;;;4869466;29;20091;-73
2023/07/04 01:19:10;;;;;;;14.63;2.78;;;;;;;;;;4891725;29;20048;-73
2023/07/04 01:21:36;;;;;;;11.80;2.50;;;;;;;;;;4880975;29;21958;-73
2023/07/04 01:24:11;;;;;;;10.23;2.55;;;;;;;;;;4880911;29;20047;-73
2023/07/04 01:26:42;;;;;;;6.80;2.47;;;;;;;;;;4881617;29;20056;-73
2023/07/04 01:29:13;;;;;;;10.18;2.72;;;;;;;;;;4882608;29;20111;-73
2023/07/04 01:31:40;;;;;;;13.82;2.90;;;;;;;;;;4883624;29;20107;-73
2023/07/04 01:34:07;;;;;;;11.70;3.55;;;;;;;;;;4883787;29;20051;-72
2023/07/04 01:36:34;;;;;;;14.82;2.88;;;;;;;;;;4885444;29;20126;-73
2023/07/04 01:39:01;;;;;;;10.88;2.42;;;;;;;;;;4884876;28;22217;-72
2023/07/04 01:41:28;;;;;;;21.75;3.38;;;;;;;;;;4898050;29;20582;-73
2023/07/04 01:43:56;;;;;;;12.93;3.28;;;;;;;;;;4880844;29;20063;-73
2023/07/04 01:46:24;;;;;;;8.68;2.50;;;;;;;;;;4897378;29;20495;-73
2023/07/04 01:48:51;;;;;;;21.30;3.95;;;;;;;;;;4879780;29;20051;-73
2023/07/04 01:51:22;;;;;;;11.88;2.78;;;;;;;;;;4885170;29;20040;-73
2023/07/04 01:53:48;;;;;;;10.35;2.75;;;;;;;;;;4887626;29;20081;-73
2023/07/04 01:56:14;;;;;;;12.45;2.97;;;;;;;;;;4893762;29;20385;-72
2023/07/04 01:58:40;;;;;;;11.60;2.58;;;;;;;;;;4882185;29;21466;-72
2023/07/04 02:01:06;;;;;;;15.02;3.28;;;;;;;;;;4882379;29;20135;-72
2023/07/04 02:03:32;;;;;;;14.38;2.53;;;;;;;;;;4880695;29;20215;-72
2023/07/04 02:05:58;;;;;;;20.20;3.53;;;;;;;;;;4896596;29;20151;-73
2023/07/04 02:08:24;;;;;;;17.15;3.25;;;;;;;;;;4868332;29;20063;-72
2023/07/04 02:10:51;;;;;;;11.80;2.88;;;;;;;;;;4880941;29;20051;-72
2023/07/04 02:13:17;;;;;;;9.38;2.78;;;;;;;;;;4895813;29;20074;-72
2023/07/04 02:15:43;;;;;;;12.70;3.75;;;;;;;;;;4895113;29;20501;-72
2023/07/04 02:18:09;;;;;;;9.10;2.58;;;;;;;;;;4897868;29;20054;-73
2023/07/04 02:20:35;;;;;;;12.23;3.05;;;;;;;;;;4877869;29;20134;-72
2023/07/04 02:23:01;;;;;;;17.70;4.00;;;;;;;;;;4878554;29;20047;-73
2023/07/04 02:25:27;;;;;;;13.95;3.28;;;;;;;;;;4875501;29;20048;-73
2023/07/04 02:27:53;;;;;;;15.18;3.50;;;;;;;;;;4863586;29;20044;-73
2023/07/04 02:30:19;;;;;;;12.52;2.88;;;;;;;;;;4895675;29;20040;-73
2023/07/04 02:32:45;;;;;;;11.02;3.15;;;;;;;;;;4878351;29;20068;-73
2023/07/04 02:35:14;;;;;;;12.18;3.30;;;;;;;;;;4879279;29;20053;-72
2023/07/04 02:37:40;;;;;;;12.93;3.03;;;;;;;;;;4899626;29;20048;-72
2023/07/04 02:40:07;;;;;;;10.15;3.17;;;;;;;;;;4881519;29;21145;-73
2023/07/04 02:42:33;;;;;;;10.80;2.70;;;;;;;;;;4882484;29;20134;-73
2023/07/04 02:44:59;;;;;;;11.50;2.50;;;;;;;;;;4897649;29;20078;-72
2023/07/04 02:47:26;;;;;;;12.27;3.08;;;;;;;;;;4881885;29;20102;-73
2023/07/04 02:49:53;;;;;;;7.57;2.40;;;;;;;;;;4882727;29;20159;-73
2023/07/04 02:52:20;;;;;;;13.65;2.83;;;;;;;;;;4894923;29;20055;-72
2023/07/04 02:54:46;;;;;;;13.35;2.97;;;;;;;;;;4881769;29;20103;-71
2023/07/04 02:57:14;;;;;;;7.90;3.10;;;;;;;;;;4896335;29;20044;-72
2023/07/04 02:59:41;;;;;;;7.55;2.97;;;;;;;;;;4898200;29;20050;-72
2023/07/04 03:02:07;;;;;;;12.10;3.47;;;;;;;;;;4882141;29;20063;-73
2023/07/04 03:04:33;;;;;;;10.93;2.75;;;;;;;;;;4888140;29;20083;-72
2023/07/04 03:07:01;;;;;;;9.80;3.08;;;;;;;;;;4879624;29;20047;-72
2023/07/04 03:09:27;;;;;;;7.72;2.53;;;;;;;;;;4896729;29;21853;-72
2023/07/04 03:11:54;;;;;;;7.72;2.58;;;;;;;;;;4893915;29;20547;-73
2023/07/04 03:14:20;;;;;;;12.07;3.58;;;;;;;;;;4881035;29;20052;-73
2023/07/04 03:16:46;;;;;;;22.05;3.05;;;;;;;;;;4880088;29;20143;-73
2023/07/04 03:19:12;;;;;;;9.90;2.92;;;;;;;;;;4878343;29;20059;-72
2023/07/04 03:21:38;;;;;;;9.40;3.20;;;;;;;;;;4886132;29;21068;-72
2023/07/04 03:24:05;;;;;;;8.48;2.85;;;;;;;;;;4896443;29;20126;-72
2023/07/04 03:26:34;;;;;;;12.23;3.40;;;;;;;;;;4865505;29;20229;-73
2023/07/04 03:29:00;;;;;;;9.55;2.95;;;;;;;;;;4876657;29;20048;-73
2023/07/04 03:31:26;;;;;;;6.75;2.92;;;;;;;;;;4865089;29;20055;-72
2023/07/04 03:33:52;;;;;;;10.55;2.92;;;;;;;;;;4875835;29;20083;-72
2023/07/04 03:36:19;;;;;;;10.35;2.75;;;;;;;;;;4876349;29;20768;-74
2023/07/04 03:38:45;;;;;;;6.40;3.00;;;;;;;;;;4878357;29;20055;-73
2023/07/04 03:41:11;;;;;;;10.18;2.97;;;;;;;;;;4882828;29;20401;-73
2023/07/04 03:43:37;;;;;;;12.85;3.15;;;;;;;;;;4874721;29;20052;-71
2023/07/04 03:46:04;;;;;;;12.98;3.10;;;;;;;;;;4864436;29;20162;-73
2023/07/04 03:48:31;;;;;;;10.85;3.00;;;;;;;;;;4894039;29;20162;-72
2023/07/04 03:50:57;;;;;;;13.07;3.20;;;;;;;;;;4878927;29;20048;-73
2023/07/04 03:53:23;;;;;;;9.77;2.75;;;;;;;;;;4882177;29;20062;-72
2023/07/04 03:55:50;;;;;;;11.82;3.50;;;;;;;;;;4878421;29;20055;-73
2023/07/04 03:58:19;;;;;;;8.88;2.90;;;;;;;;;;4878382;29;20066;-72
2023/07/04 04:00:46;;;;;;;11.48;2.95;;;;;;;;;;4877355;29;20193;-73
2023/07/04 04:03:12;;;;;;;10.55;3.05;;;;;;;;;;4888321;29;20704;-73
2023/07/04 04:05:39;;;;;;;13.52;4.10;;;;;;;;;;4875691;29;21754;-73
2023/07/04 04:08:05;;;;;;;9.68;3.50;;;;;;;;;;4895278;29;20121;-73
2023/07/04 04:10:31;;;;;;;12.60;3.83;;;;;;;;;;4894813;29;20039;-73
2023/07/04 04:12:57;;;;;;;7.20;3.10;;;;;;;;;;4878021;29;20958;-73
2023/07/04 04:15:23;;;;;;;13.07;3.25;;;;;;;;;;4895574;29;20043;-73
2023/07/04 04:17:49;;;;;;;9.50;3.60;;;;;;;;;;4879979;29;21297;-73
2023/07/04 04:20:15;;;;;;;10.00;3.25;;;;;;;;;;4878550;29;20226;-72
2023/07/04 04:22:45;;;;;;;9.73;3.10;;;;;;;;;;4887824;29;20525;-72
2023/07/04 04:25:12;;;;;;;7.05;2.70;;;;;;;;;;4878576;29;20135;-72
2023/07/04 04:27:38;;;;;;;4.38;2.70;;;;;;;;;;4880176;29;20043;-73
2023/07/04 04:30:11;;;;;;;8.65;2.28;;;;;;;;;;4899487;29;22148;-72
2023/07/04 04:32:37;;;;;;;4.18;2.38;;;;;;;;;;4882507;29;20064;-73
2023/07/04 04:35:04;;;;;;;9.85;2.47;;;;;;;;;;4878085;29;20059;-73
2023/07/04 04:37:30;;;;;;;7.53;2.58;;;;;;;;;;4883783;29;20051;-74
2023/07/04 04:39:56;;;;;;;8.05;2.53;;;;;;;;;;4883030;29;20056;-73
2023/07/04 04:42:23;;;;;;;11.45;2.70;;;;;;;;;;4863198;29;20052;-77
2023/07/04 04:44:53;;;;;;;7.40;2.60;;;;;;;;;;4895372;29;20060;-74
2023/07/04 04:47:31;;;;;;;7.43;2.20;;;;;;;;;;4887985;29;22129;-72
2023/07/04 04:50:16;;;;;;;6.18;1.80;;;;;;;;;;4899155;29;20907;-72
2023/07/04 04:52:43;;;;;;;8.27;2.38;;;;;;;;;;4881726;29;20083;-72
2023/07/04 04:55:09;;;;;;;8.35;1.88;;;;;;;;;;4899105;29;20420;-73
2023/07/04 04:57:35;;;;;;;6.25;1.77;;;;;;;;;;4867814;29;20055;-73
2023/07/04 05:00:02;;;;;;;4.80;1.98;;;;;;;;;;4881963;29;20099;-72
2023/07/04 05:02:31;;;;;;;5.30;2.00;;;;;;;;;;4883870;29;20068;-73
2023/07/04 05:05:00;;;;;;;8.52;1.67;;;;;;;;;;4864587;29;20136;-73
2023/07/04 05:07:27;;;;;;;4.20;1.60;;;;;;;;;;4885370;29;20059;-74
2023/07/04 05:09:54;;;;;;;5.35;1.73;;;;;;;;;;4872350;29;20555;-73
2023/07/04 05:12:20;;;;;;;6.00;2.28;;;;;;;;;;4901202;29;20090;-74
2023/07/04 05:14:46;;;;;;;9.48;2.00;;;;;;;;;;4883904;29;20051;-74
2023/07/04 05:17:12;;;;;;;10.90;2.08;;;;;;;;;;4889294;29;20060;-74
2023/07/04 05:19:38;;;;;;;7.30;2.03;;;;;;;;;;4898261;29;20051;-74
2023/07/04 05:22:04;;;;;;;7.20;2.00;;;;;;;;;;4898358;29;20063;-74
2023/07/04 05:24:31;;;;;;;6.90;1.92;;;;;;;;;;4885596;29;20166;-74
2023/07/04 05:26:57;;;;;;;9.90;2.65;;;;;;;;;;4886079;29;20096;-74
2023/07/04 05:29:23;;;;;;;6.78;2.38;;;;;;;;;;4897520;29;20044;-74
2023/07/04 05:31:49;;;;;;;6.65;2.03;;;;;;;;;;4901790;29;20063;-72
2023/07/04 05:34:15;;;;;;;8.63;3.10;;;;;;;;;;4903385;29;20052;-72
2023/07/04 05:36:42;;;;;;;12.00;3.17;;;;;;;;;;4888480;29;20058;-72
2023/07/04 05:39:08;;;;;;;9.85;2.58;;;;;;;;;;4885550;29;20036;-73
2023/07/04 05:41:35;;;;;;;9.52;2.90;;;;;;;;;;4891176;29;20040;-72
2023/07/04 05:44:03;;;;;;;16.33;2.85;;;;;;;;;;4892675;29;20051;-72
2023/07/04 05:46:29;;;;;;;5.32;2.75;;;;;;;;;;4894216;29;20039;-70
2023/07/04 05:48:56;;;;;;;8.07;2.97;;;;;;;;;;4889199;29;20389;-72
2023/07/04 05:51:22;;;;;;;9.90;3.00;;;;;;;;;;4886848;29;20047;-71
2023/07/04 05:53:49;;;;;;;10.45;3.63;;;;;;;;;;4903620;29;20086;-72
2023/07/04 05:56:20;;;;;;;9.60;2.60;;;;;;;;;;4885100;29;20134;-72
2023/07/04 05:58:47;;;;;;;12.98;2.88;;;;;;;;;;4902678;29;20522;-72
2023/07/04 06:01:15;;;;;;;6.82;2.58;;;;;;;;;;4901246;29;20082;-73
2023/07/04 06:03:43;;;;;;;8.75;3.20;;;;;;;;;;4887010;29;20063;-72
2023/07/04 06:06:16;;;;;;;11.88;3.20;;;;;;;;;;4884060;29;20360;-72
2023/07/04 06:08:42;;;;;;;9.63;3.50;;;;;;;;;;4882667;29;20170;-72
2023/07/04 06:11:08;;;;;;;8.30;4.03;;;;;;;;;;4886404;29;20043;-72
2023/07/04 06:13:37;;;;;;;8.05;3.08;;;;;;;;;;4885823;29;20428;-72
2023/07/04 06:16:04;;;;;;;8.13;2.85;;;;;;;;;;4885614;29;20043;-73
2023/07/04 06:18:31;;;;;;;6.10;2.63;;;;;;;;;;4902937;29;20292;-72
2023/07/04 06:21:06;;;;;;;10.73;2.92;;;;;;;;;;4882832;29;22547;-72
2023/07/04 06:23:32;;;;;;;8.93;2.90;;;;;;;;;;4900808;29;20050;-72
2023/07/04 06:25:58;;;;;;;6.07;2.63;;;;;;;;;;4897695;29;20775;-73
2023/07/04 06:28:24;;;;;;;7.45;2.40;;;;;;;;;;4900360;29;20110;-73
2023/07/04 06:30:50;;;;;;;7.40;2.08;;;;;;;;;;4900932;29;20040;-72
2023/07/04 06:33:16;;;;;;;7.70;2.50;;;;;;;;;;4899367;29;20153;-73
2023/07/04 06:35:42;;;;;;;5.38;2.10;;;;;;;;;;4871733;29;20725;-73
2023/07/04 06:38:09;;;;;;;7.78;2.50;;;;;;;;;;4882867;29;20048;-73
2023/07/04 06:40:35;;;;;;;8.93;2.40;;;;;;;;;;4896192;29;22654;-72
2023/07/04 06:43:03;;;;;;;6.05;2.42;;;;;;;;;;4883754;29;20827;-73
2023/07/04 06:45:29;;;;;;;11.52;2.55;;;;;;;;;;4903773;29;20063;-72
2023/07/04 06:47:55;;;;;;;4.88;2.10;;;;;;;;;;4885392;29;20135;-74
2023/07/04 06:50:22;;;;;;;8.13;2.33;;;;;;;;;;4901759;29;20075;-71
2023/07/04 06:52:48;;;;;;;7.57;1.88;;;;;;;;;;4886573;29;20369;-73
2023/07/04 06:55:14;;;;;;;5.82;1.52;;;;;;;;;;4887959;29;20127;-73
2023/07/04 06:57:40;;;;;;;3.75;1.40;;;;;;;;;;4887272;29;20048;-72
2023/07/04 07:00:06;;;;;;;7.85;1.60;;;;;;;;;;4888044;29;20046;-72
2023/07/04 07:02:32;;;;;;;4.25;1.35;;;;;;;;;;4905775;29;21889;-73
2023/07/04 07:04:59;;;;;;;9.60;2.13;;;;;;;;;;4906054;29;20231;-72
2023/07/04 07:07:25;;;;;;;6.32;1.42;;;;;;;;;;4905211;29;20468;-73
2023/07/04 07:09:51;;;;;;;10.70;2.10;;;;;;;;;;4905513;29;20035;-72
2023/07/04 07:12:17;;;;;;;6.43;1.38;;;;;;;;;;4873729;29;20050;-72
2023/07/04 07:14:46;;;;;;;6.05;1.20;;;;;;;;;;4904341;29;20119;-73
2023/07/04 07:17:12;;;;;;;6.22;1.50;;;;;;;;;;4886642;29;20059;-72
2023/07/04 07:19:39;;;;;;;9.73;1.90;;;;;;;;;;4890248;29;20400;-72
2023/07/04 07:22:05;;;;;;;7.60;1.30;;;;;;;;;;4897228;29;20040;-72
2023/07/04 07:24:31;;;;;;;10.05;1.60;;;;;;;;;;4906283;29;20050;-72
2023/07/04 07:26:58;;;;;;;6.47;1.33;;;;;;;;;;4888656;29;20044;-72
2023/07/04 07:29:26;;;;;;;3.67;1.02;;;;;;;;;;4873818;29;20047;-73
2023/07/04 07:31:52;;;;;;;6.03;1.20;;;;;;;;;;4894536;29;20517;-73
2023/07/04 07:34:18;;;;;;;5.32;1.20;;;;;;;;;;4903171;29;20126;-74
2023/07/04 07:36:45;;;;;;;5.47;1.15;;;;;;;;;;4884226;29;20054;-73
2023/07/04 07:39:13;;;;;;;7.05;1.40;;;;;;;;;;4902706;29;20044;-73
2023/07/04 07:41:47;;;;;;;7.10;1.70;;;;;;;;;;4887853;29;20059;-73
2023/07/04 07:44:13;;;;;;;;;;;;;;;;;;4905235;29;20048;-73
2023/07/04 07:46:39;;;;;;;4.45;1.48;;;;;;;;;;4905065;29;20410;-74
2023/07/04 07:49:06;;;;;;;4.95;1.38;;;;;;;;;;4892076;29;20047;-73
2023/07/04 07:51:32;;;;;;;3.97;1.15;;;;;;;;;;4887489;29;20044;-74
2023/07/04 07:54:00;;;;;;;3.28;1.20;;;;;;;;;;4887105;29;20079;-73
2023/07/04 07:56:31;;;;;;;4.97;1.30;;;;;;;;;;4903856;29;20048;-73
2023/07/04 07:58:58;;;;;;;11.10;1.83;;;;;;;;;;4886842;29;20044;-73
2023/07/04 08:01:24;;;;;;;7.57;1.38;;;;;;;;;;4903502;29;20051;-80
2023/07/04 08:03:50;;;;;;;5.40;1.25;;;;;;;;;;4887202;29;20048;-72
2023/07/04 08:06:22;;;;;;;5.07;0.98;;;;;;;;;;4887624;29;20385;-72
2023/07/04 08:08:48;;;;;;;10.85;1.60;;;;;;;;;;4904615;29;20044;-73
2023/07/04 08:11:14;;;;;;;6.57;1.55;;;;;;;;;;4904662;29;20122;-73
2023/07/04 08:13:41;;;;;;;6.40;1.23;;;;;;;;;;4903796;29;20055;-73
2023/07/04 08:16:07;;;;;;;5.30;1.42;;;;;;;;;;4903568;29;20058;-73
2023/07/04 08:18:33;;;;;;;3.35;1.17;;;;;;;;;;4893890;29;20075;-73
2023/07/04 08:21:01;;;;;;;3.97;1.33;;;;;;;;;;4902470;29;20044;-73
2023/07/04 08:23:27;;;;;;;4.47;1.00;;;;;;;;;;4895500;29;20056;-73
2023/07/04 08:25:53;;;;;;;2.25;0.90;;;;;;;;;;4887410;29;20040;-74
2023/07/04 08:28:21;;;;;;;3.28;1.20;;;;;;;;;;4903136;29;20086;-73
2023/07/04 08:30:47;;;;;;;5.40;1.20;;;;;;;;;;4860558;29;20934;-73
2023/07/04 08:33:16;;;;;;;2.10;0.90;;;;;;;;;;4904809;29;20063;-74
2023/07/04 08:35:53;;;;;;;4.53;0.98;;;;;;;;;;4889065;29;21529;-72
2023/07/04 08:38:19;;;;;;;3.65;1.20;;;;;;;;;;4887481;29;20062;-73
2023/07/04 08:40:45;;;;;;;4.35;1.73;;;;;;;;;;4906637;29;20054;-73
2023/07/04 08:43:12;;;;;;;12.75;2.05;;;;;;;;;;4909235;29;20050;-73
2023/07/04 08:45:38;;;;;;;1.80;0.82;;;;;;;;;;4896757;29;20402;-74
2023/07/04 08:48:04;;;;;;;6.18;1.40;;;;;;;;;;4906942;29;20072;-74
2023/07/04 08:50:31;;;;;;;4.35;1.67;;;;;;;;;;4895931;29;20069;-73
2023/07/04 08:53:11;;;;;;;10.88;1.15;;;;;;;;;;4888398;29;20076;-74
2023/07/04 08:55:43;;;;;;;4.70;1.10;;;;;;;;;;4900473;29;20078;-74
2023/07/04 08:58:09;;;;;;;4.55;1.25;;;;;;;;;;4890154;29;20055;-74
2023/07/04 09:00:40;;;;;;;6.97;2.05;;;;;;;;;;4891328;29;20051;-74
2023/07/04 09:03:19;;;;;;;5.50;1.33;;;;;;;;;;4877865;29;20044;-74
2023/07/04 09:05:48;;;;;;;6.45;1.55;;;;;;;;;;4888219;29;20078;-74
2023/07/04 09:08:25;;;;;;;3.92;1.38;;;;;;;;;;4887987;29;20052;-74
2023/07/04 09:10:54;;;;;;;4.40;1.00;;;;;;;;;;4887078;29;20133;-73
2023/07/04 09:13:35;;;;;;;8.52;1.30;;;;;;;;;;4907896;29;20075;-73
2023/07/04 09:16:07;;;;;;;4.78;1.10;;;;;;;;;;4890148;29;20465;-73
2023/07/04 09:18:52;;;;;;;5.60;1.17;;;;;;;;;;4908113;29;20044;-72
2023/07/04 09:21:19;;;;;;;5.82;1.52;;;;;;;;;;4906376;29;20052;-73
2023/07/04 09:23:46;;;;;;;4.78;1.40;;;;;;;;;;4889752;29;20058;-73
2023/07/04 09:26:15;;;;;;;3.20;1.20;;;;;;;;;;4907668;29;20416;-72
2023/07/04 09:28:42;;;;;;;6.28;1.38;;;;;;;;;;4882462;29;20040;-73
2023/07/04 09:31:14;;;;;;;9.77;1.33;;;;;;;;;;4907431;29;20471;-72
2023/07/04 09:33:41;;;;;;;6.50;1.50;;;;;;;;;;4911711;29;20056;-73
2023/07/04 09:36:09;;;;;;;6.32;1.48;;;;;;;;;;4913496;29;20044;-73
2023/07/04 09:39:10;;;;;;;18.38;2.15;;;;;;;;;;4915952;29;20142;-73
2023/07/04 09:41:40;;;;;;;10.93;2.20;;;;;;;;;;4806118;29;20045;-74
2023/07/04 09:44:13;;;;;;;3.95;1.70;;;;;;;;;;4882295;29;20088;-74
2023/07/04 09:46:40;;;;;;;5.85;1.88;;;;;;;;;;4892771;29;20975;-74
2023/07/04 09:49:20;;;;;;;10.65;1.98;;;;;;;;;;4905852;29;20055;-74
2023/07/04 09:51:56;;;;;;;5.20;1.33;;;;;;;;;;4905963;29;20500;-73
2023/07/04 09:54:22;;;;;;;8.45;1.83;;;;;;;;;;4888113;29;20591;-74
2023/07/04 09:56:48;;;;;;;5.90;1.58;;;;;;;;;;4887201;29;22079;-74
2023/07/04 09:59:19;;;;;;;10.25;2.60;;;;;;;;;;4892064;29;20052;-74
2023/07/04 10:01:53;;;;;;;10.60;2.13;;;;;;;;;;4877916;29;20134;-74
2023/07/04 10:04:25;;;;;;;7.82;2.20;;;;;;;;;;4888795;29;20170;-73
2023/07/04 10:06:52;;;;;;;11.68;2.58;;;;;;;;;;4889430;29;20047;-74
2023/07/04 10:09:20;;;;;;;8.70;1.88;;;;;;;;;;4888786;29;20046;-73
2023/07/04 10:11:47;;;;;;;9.23;2.30;;;;;;;;;;4887536;29;20058;-73
2023/07/04 10:14:14;;;;;;;9.23;2.78;;;;;;;;;;4889098;29;20864;-74
2023/07/04 10:16:50;;;;;;;6.80;1.83;;;;;;;;;;4906797;29;20048;-74
2023/07/04 10:19:21;;;;;;;7.63;1.83;;;;;;;;;;4875799;29;20131;-74
2023/07/04 10:21:50;;;;;;;5.65;1.55;;;;;;;;;;4909832;29;20912;-74
2023/07/04 10:24:21;;;;;;;6.60;1.85;;;;;;;;;;4890388;29;20063;-74
2023/07/04 10:26:48;;;;;;;5.22;1.70;;;;;;;;;;4906033;29;20044;-73
2023/07/04 10:29:16;;;;;;;7.05;1.55;;;;;;;;;;4889094;29;20043;-74
2023/07/04 10:31:43;;;;;;;8.77;1.90;;;;;;;;;;4905761;29;20091;-73
2023/07/04 10:34:10;;;;;;;11.00;1.80;;;;;;;;;;4905090;29;20051;-74
2023/07/04 10:36:37;;;;;;;6.97;1.63;;;;;;;;;;4906693;29;20159;-73
2023/07/04 10:39:12;;;;;;;10.23;1.52;;;;;;;;;;4887454;29;20052;-74
2023/07/04 10:41:58;;;;;;;7.32;1.65;;;;;;;;;;4906845;29;20039;-74
2023/07/04 10:44:31;;;;;;;6.97;1.30;;;;;;;;;;4877682;29;20057;-74
2023/07/04 10:47:00;;;;;;;5.17;1.60;;;;;;;;;;4888124;29;20772;-73
2023/07/04 10:49:28;;;;;;;4.80;1.38;;;;;;;;;;4888553;29;20347;-74
2023/07/04 10:52:00;;;;;;;11.70;1.73;;;;;;;;;;4903815;29;20044;-74
2023/07/04 10:54:26;;;;;;;8.98;1.88;;;;;;;;;;4886764;29;20071;-73
2023/07/04 10:56:54;;;;;;;5.40;1.77;;;;;;;;;;4884381;29;20210;-74
2023/07/04 10:59:23;;;;;;;4.38;1.85;;;;;;;;;;4880368;29;20044;-74
2023/07/04 11:01:52;;;;;;;4.43;1.30;;;;;;;;;;4900902;29;20059;-73
2023/07/04 11:04:22;;;;;;;8.15;1.45;;;;;;;;;;4892471;29;20050;-72
2023/07/04 11:06:54;;;;;;;6.72;1.40;;;;;;;;;;4902247;29;20055;-74
2023/07/04 11:09:20;;;;;;;4.97;1.63;;;;;;;;;;4871550;29;20092;-74
2023/07/04 11:11:48;;;;;;;4.38;1.40;;;;;;;;;;4874800;29;20047;-75
2023/07/04 11:14:25;;;;;;;3.28;1.17;;;;;;;;;;4905467;29;20079;-75
2023/07/04 11:16:54;;;;;;;4.32;1.10;;;;;;;;;;4874167;29;20051;-73
2023/07/04 11:19:26;;;;;;;7.53;1.73;;;;;;;;;;4886572;29;20110;-73
2023/07/04 11:22:14;;;;;;;9.77;1.58;;;;;;;;;;4889232;29;20047;-74
2023/07/04 11:24:44;;;;;;;7.38;2.05;;;;;;;;;;4886766;29;20043;-73
2023/07/04 11:27:10;;;;;;;8.00;2.05;;;;;;;;;;4887096;29;20052;-74
2023/07/04 11:29:47;;;;;;;8.52;2.08;;;;;;;;;;4889403;29;20048;-74
2023/07/04 11:32:17;;;;;;;7.90;1.48;;;;;;;;;;4905155;29;20182;-74
2023/07/04 11:34:46;;;;;;;8.45;1.80;;;;;;;;;;4886521;29;20067;-75
2023/07/04 11:37:23;;;;;;;7.03;1.83;;;;;;;;;;4897745;29;20071;-74
2023/07/04 11:39:52;;;;;;;7.72;1.48;;;;;;;;;;4888526;29;20435;-74
2023/07/04 11:42:33;;;;;;;6.50;1.75;;;;;;;;;;4892580;29;20530;-74
2023/07/04 11:45:01;;;;;;;8.02;2.30;;;;;;;;;;4890632;29;20050;-75
2023/07/04 11:47:33;;;;;;;5.85;1.60;;;;;;;;;;4889846;29;21744;-72
2023/07/04 11:50:01;;;;;;;11.55;1.73;;;;;;;;;;4876944;29;21900;-74
2023/07/04 11:52:29;;;;;;;5.55;1.10;;;;;;;;;;4890121;29;20084;-75
2023/07/04 11:55:01;;;;;;;8.45;1.48;;;;;;;;;;4890998;29;20052;-74
2023/07/04 11:57:59;;;;;;;6.07;1.45;;;21.20;99.90;;;;;;4906627;29;20051;-75
2023/07/04 12:00:31;;;;;;;4.18;1.35;;;;;;;;;;4908016;29;20067;-74
2023/07/04 12:03:30;;;;;;;4.93;1.50;;;;;;;;;;4890524;29;20118;-73
2023/07/04 12:05:57;;;;;;;10.50;1.73;;;;;;;;;;4856441;29;20051;-73
2023/07/04 12:08:29;;;;;;;5.88;1.73;;;;;;;;;;4886545;29;20052;-74
2023/07/04 12:10:56;;;;;;;6.72;1.73;;;;;;;;;;4886358;29;20055;-74
2023/07/04 12:13:22;;;;;;;8.05;2.05;;;;;;;;;;4903982;29;20131;-73
2023/07/04 12:15:49;;;;;;;9.65;2.10;;;;;;;;;;4889208;29;20048;-73
2023/07/04 12:18:35;;;;;;;12.50;2.60;;;;;;;;;;4870663;29;20162;-73
2023/07/04 12:21:01;;;;;;;6.97;1.75;;;;;;;;;;4903764;29;20059;-73
2023/07/04 12:23:28;;;;;;;5.68;1.67;;;;;;;;;;4906096;29;20052;-71
2023/07/04 12:25:56;;;;;;;4.28;1.13;;;;;;;;;;4899866;29;20075;-72
2023/07/04 12:28:29;;;;;;;5.93;1.65;;;;;;;;;;4903219;29;20036;-73
2023/07/04 12:30:55;;;;;;;;;;;;;;;;;;4884823;29;20054;-73
2023/07/04 12:33:28;;;;;;;10.57;1.98;;;;;;;;;;4884211;29;20516;-73
2023/07/04 12:35:55;;;;;;;7.60;1.25;;;;;;;;;;4899093;29;20557;-73
2023/07/04 12:38:25;;;;;;;4.65;1.50;;;;;;;;;;4899467;29;20079;-73
2023/07/04 12:40:52;;;;;;;4.13;1.20;;;;;;;;;;4880742;29;20123;-73
2023/07/04 12:43:18;;;;;;;11.93;1.67;;;;;;;;;;4897154;29;20051;-73
2023/07/04 12:45:45;;;;;;;5.40;1.63;;;;;;;;;;4899627;29;20048;-73
2023/07/04 12:48:12;;;;;;;5.50;1.23;;;;;;;;;;4883020;29;20051;-73
2023/07/04 12:50:52;;;;;;;8.07;1.77;;;;;;;;;;4885531;29;20155;-73
2023/07/04 12:53:20;;;;;;;5.43;1.40;;;;;;;;;;4902454;29;20199;-72
2023/07/04 12:55:46;;;;;;;5.50;1.30;;;;;;;;;;4884494;29;20059;-72
2023/07/04 12:58:13;;;;;;;6.00;2.05;;;;;;;;;;4884861;29;20160;-73
2023/07/04 13:00:44;;;;;;;6.45;1.40;;;;;;;;;;4902381;29;20054;-73
2023/07/04 13:03:11;;;;;;;6.07;1.75;;;;;;;;;;4885721;29;20532;-73
2023/07/04 13:05:45;;;;;;;5.18;1.80;;;;;;;;;;4883881;29;20697;-73
2023/07/04 13:08:16;;;;;;;8.27;1.60;;;;;;;;;;4884171;29;20127;-73
2023/07/04 13:10:48;;;;;;;6.50;1.48;;;;;;;;;;4891531;29;20183;-73
2023/07/04 13:13:33;;;;;;;7.85;1.60;;;;;;;;;;4884355;29;20051;-73
2023/07/04 13:16:18;;;;;;;6.70;2.08;;;;;;;;;;4884348;29;20050;-73
2023/07/04 13:18:45;;;;;;;11.05;1.70;;;;;;;;;;4871790;29;20173;-73
2023/07/04 13:21:22;;;;;;;4.63;1.27;;;;;;;;;;4886283;29;20082;-73
2023/07/04 13:23:48;;;;;;;6.82;1.50;;;;;;;;;;4900988;29;20043;-73
2023/07/04 13:26:25;;;;;;;5.38;1.88;;;;;;;;;;4882129;29;20051;-73
2023/07/04 13:28:53;;;;;;;6.85;1.63;;;;;;;;;;4893583;29;20051;-73
2023/07/04 13:31:25;;;;;;;5.20;1.48;;;;;;;;;;4907637;29;20074;-73
2023/07/04 13:33:53;;;;;;;5.80;1.60;;;;;;;;;;4896203;29;20591;-73
2023/07/04 13:36:23;;;;;;;7.45;1.42;;;;;;;;;;4886065;29;20052;-73
2023/07/04 13:38:52;;;;;;;5.95;1.85;;;;;;;;;;4890380;29;20058;-73
2023/07/04 13:41:22;;;;;;;6.75;1.80;;;;;;;;;;4888678;29;20143;-74
2023/07/04 13:43:48;;;;;;;6.28;1.63;;;;;;;;;;4888077;29;20074;-75
2023/07/04 13:46:15;;;;;;;5.07;1.75;;;;;;;;;;4882572;29;20095;-74
2023/07/04 13:48:41;;;;;;;7.28;1.60;;;;;;;;;;4885229;29;20056;-74
2023/07/04 13:51:08;;;;;;;5.75;1.50;;;;;;;;;;4883670;29;20055;-73
2023/07/04 13:53:34;;;;;;;7.45;2.20;;;;;;;;;;4881525;29;20047;-73
2023/07/04 13:56:00;;;;;;;8.60;1.70;;;;;;;;;;4898923;29;20048;-73
2023/07/04 13:58:27;;;;;;;6.18;1.90;;;;;;;;;;4883396;29;20187;-73
2023/07/04 14:00:53;;;;;;;5.70;1.40;;;;;;;;;;4898747;29;20047;-73
2023/07/04 14:03:20;;;;;;;9.52;1.88;;;;;;;;;;4883564;29;20091;-73
2023/07/04 14:05:46;;;;;;;5.68;1.98;;;;;;;;;;4879543;29;20051;-74
2023/07/04 14:08:12;;;;;;;5.25;1.52;;;;;;;;;;4868835;29;20051;-73
2023/07/04 14:10:38;;;;;;;5.15;1.55;;;;;;;;;;4885061;29;20063;-74
2023/07/04 14:13:05;;;;;;;6.28;1.70;;;;;;;;;;4884321;29;20739;-73
2023/07/04 14:15:31;;;;;;;8.98;1.80;;;;;;;;;;4870912;29;20044;-72
2023/07/04 14:17:58;;;;;;;4.60;1.83;;;;;;;;;;4884205;29;20166;-73
2023/07/04 14:20:25;;;;;;;7.57;1.52;;;;;;;;;;4900211;29;20059;-74
2023/07/04 14:22:52;;;;;;;6.75;1.90;;;;;;;;;;4885579;29;20512;-73
2023/07/04 14:25:19;;;;;;;7.22;1.55;;;;;;;;;;4883816;29;20188;-73
2023/07/04 14:27:45;;;;;;;7.85;1.60;;;;;;;;;;4885319;29;20139;-73
2023/07/04 14:30:11;;;;;;;4.22;1.63;;;;;;;;;;4901354;29;20048;-73
2023/07/04 14:32:38;;;;;;;5.38;1.70;;;;;;;;;;4884212;29;20094;-73
2023/07/04 14:35:04;;;;;;;7.22;1.90;;;;;;;;;;4898430;29;20465;-75
2023/07/04 14:37:31;;;;;;;6.78;2.10;;;;;;;;;;4888904;29;20049;-74
2023/07/04 14:39:57;;;;;;;7.68;2.08;;;;;;;;;;4878874;29;20441;-72
2023/07/04 14:42:23;;;;;;;5.07;1.70;;;;;;;;;;4883348;29;20051;-72
2023/07/04 14:44:50;;;;;;;10.57;1.80;;;;;;;;;;4901974;29;20175;-73